Time;durP1;ratioP1;P1;durP2;ratioP2;P2;SDS_P1;SDS_P2;PMS_P1;PMS_P2;Temp;Humidity;BMP_temperature;BMP_pressure;BME280_temperature;BME280_humidity;BME280_pressure;Samples;Min_cycle;Max_cycle;Signal;HPM_P1;HPM_P2
2023/01/31 04:58:57;;;;;;;7.28;3.65;;;;;;;;;;4958294;29;20323;-68
2023/01/31 05:01:24;;;;;;;4.18;3.10;;;;;;;;;;4959603;29;20255;-68
2023/01/31 05:03:51;;;;;;;3.45;3.17;;;;;;;;;;4959058;29;20200;-69
2023/01/31 05:06:18;;;;;;;3.90;3.00;;;;;;;;;;4958650;29;20642;-69
2023/01/31 05:08:46;;;;;;;8.25;4.80;;;;;;;;;;4958931;29;20213;-69
2023/01/31 05:11:13;;;;;;;7.65;4.35;;;;;;;;;;4959618;29;20298;-68
2023/01/31 05:13:41;;;;;;;5.97;4.60;;;;;;;;;;4958588;29;20238;-67
2023/01/31 05:16:10;;;;;;;9.05;4.55;;;;;;;;;;4958257;29;20255;-68
2023/01/31 05:18:38;;;;;;;7.18;3.58;;;;;;;;;;4958450;29;20203;-68
2023/01/31 05:21:06;;;;;;;6.35;4.50;;;;;;;;;;4958367;29;20255;-68
2023/01/31 05:23:33;;;;;;;12.43;4.90;;;;;;;;;;4958116;29;20204;-68
2023/01/31 05:26:00;;;;;;;8.18;4.93;;;;;;;;;;4957725;29;20204;-68
2023/01/31 05:28:27;;;;;;;6.47;4.50;;;;;;;;;;4957638;29;20677;-68
2023/01/31 05:30:54;;;;;;;10.32;5.45;;;;;;;;;;4958479;29;20192;-69
2023/01/31 05:33:22;;;;;;;6.82;4.78;;;;;;;;;;4958204;29;20218;-68
2023/01/31 05:35:49;;;;;;;10.25;5.32;;;;;;;;;;4957694;29;20280;-69
2023/01/31 05:38:16;;;;;;;12.35;5.10;;;;;;;;;;4957712;29;20532;-69
2023/01/31 05:40:43;;;;;;;10.23;5.15;;;;;;;;;;4957951;29;20200;-69
2023/01/31 05:43:10;;;;;;;8.13;4.93;;;;;;;;;;4957843;28;20219;-69
2023/01/31 05:45:37;;;;;;;5.68;4.28;;;;;;;;;;4957789;29;20269;-68
2023/01/31 05:48:05;;;;;;;11.30;4.60;;;;;;;;;;4958265;29;20733;-67
2023/01/31 05:50:33;;;;;;;6.07;3.58;;;;;;;;;;4959212;29;20208;-68
2023/01/31 05:53:01;;;;;;;5.60;3.85;;;;;;;;;;4957934;29;20252;-67
2023/01/31 05:55:29;;;;;;;7.05;3.85;;;;;;;;;;4957381;29;20271;-68
2023/01/31 05:57:56;;;;;;;3.42;3.13;;;;;;;;;;4957368;29;20278;-68
2023/01/31 06:00:24;;;;;;;6.90;4.28;;;;;;;;;;4957218;29;20231;-69
2023/01/31 06:02:51;;;;;;;10.73;3.88;;;;;;;;;;4957484;29;20207;-68
2023/01/31 06:05:18;;;;;;;5.10;3.40;;;;;;;;;;4957402;29;20200;-68
2023/01/31 11:57:56;;;;;;;3.47;2.22;;;3.60;99.90;;;;;;4916625;29;20224;-71
2023/01/31 12:00:25;;;;;;;4.85;3.08;;;3.60;99.90;;;;;;4918559;29;20189;-71
2023/01/31 12:02:59;;;;;;;3.97;3.08;;;3.60;99.90;;;;;;4918038;29;20673;-71
2023/01/31 12:05:36;;;;;;;2.35;2.20;;;3.60;99.90;;;;;;4918081;29;20300;-70
2023/01/31 12:08:02;;;;;;;6.80;3.35;;;3.60;99.90;;;;;;4918449;29;20277;-71
2023/01/31 12:10:34;;;;;;;2.80;2.33;;;3.60;99.90;;;;;;4918434;29;20261;-71
2023/01/31 12:13:11;;;;;;;8.25;2.80;;;3.60;99.90;;;;;;4918449;29;20288;-71
2023/01/31 12:15:51;;;;;;;8.85;3.10;;;3.70;99.90;;;;;;4917675;29;20244;-70
2023/01/31 12:18:25;;;;;;;4.78;2.33;;;3.70;99.90;;;;;;4917590;29;20193;-70
2023/01/31 12:21:02;;;;;;;4.45;2.22;;;3.80;99.90;;;;;;4917620;29;20252;-71
2023/01/31 12:23:38;;;;;;;4.25;2.70;;;3.90;99.90;;;;;;4917335;29;20661;-71
2023/01/31 12:26:10;;;;;;;2.70;2.50;;;3.90;99.90;;;;;;4917028;29;20596;-71
2023/01/31 12:28:50;;;;;;;5.68;2.38;;;3.90;99.90;;;;;;4917911;29;20194;-71
2023/01/31 12:31:53;;;;;;;3.95;2.10;;;4.00;99.90;;;;;;4917012;29;20645;-71
2023/01/31 12:34:38;;;;;;;3.38;2.58;;;4.10;99.90;;;;;;4917018;29;20201;-70
2023/01/31 12:37:17;;;;;;;3.85;2.20;;;4.10;99.90;;;;;;4917313;29;20194;-71
2023/01/31 12:40:01;;;;;;;6.85;2.70;;;4.20;99.90;;;;;;4916953;29;20589;-71
2023/01/31 12:42:45;;;;;;;2.63;2.42;;;4.30;99.90;;;;;;4917329;29;20197;-70
2023/01/31 12:45:30;;;;;;;3.67;2.30;;;4.40;99.90;;;;;;4917078;29;20241;-71
2023/01/31 12:48:28;;;;;;;2.58;2.05;;;4.50;99.90;;;;;;4916858;29;20725;-71
2023/01/31 12:51:03;;;;;;;4.65;2.03;;;4.60;99.90;;;;;;4917236;29;20193;-70
2023/01/31 12:53:54;;;;;;;4.15;1.95;;;4.70;96.60;;;;;;4919536;29;20253;-70
2023/01/31 12:56:34;;;;;;;3.10;1.75;;;4.70;96.80;;;;;;4920340;29;20637;-70
2023/01/31 12:59:09;;;;;;;2.55;1.95;;;4.70;98.00;;;;;;4920520;29;20228;-71
2023/01/31 13:01:42;;;;;;;2.42;2.22;;;4.80;95.90;;;;;;4920634;29;20220;-71
2023/01/31 13:04:30;;;;;;;2.35;2.13;;;4.80;96.40;;;;;;4922269;29;20226;-70
2023/01/31 13:07:00;;;;;;;2.25;1.88;;;4.80;99.90;;;;;;4920658;29;20194;-71
2023/01/31 13:09:31;;;;;;;6.82;2.35;;;4.90;99.40;;;;;;4920526;29;20186;-71
2023/01/31 13:12:02;;;;;;;3.08;2.28;;;4.90;98.70;;;;;;4920675;29;20194;-71
2023/01/31 13:14:32;;;;;;;4.35;1.88;;;4.90;98.60;;;;;;4920573;29;20189;-70
2023/01/31 13:17:03;;;;;;;3.13;1.80;;;4.90;97.10;;;;;;4920100;29;20590;-71
2023/01/31 13:19:33;;;;;;;2.45;2.25;;;4.90;97.60;;;;;;4920945;29;20205;-71
2023/01/31 13:22:05;;;;;;;3.70;2.10;;;4.90;99.90;;;;;;4920146;29;20272;-70
2023/01/31 13:24:36;;;;;;;3.20;2.05;;;4.90;98.10;;;;;;4920039;29;20193;-70
2023/01/31 13:27:09;;;;;;;4.85;2.28;;;4.90;98.10;;;;;;4920099;29;20190;-71
2023/01/31 13:29:40;;;;;;;4.75;2.42;;;4.90;99.70;;;;;;4919994;29;20193;-71
2023/01/31 13:32:14;;;;;;;4.55;2.05;;;4.90;99.90;;;;;;4920006;29;20193;-71
2023/01/31 13:34:48;;;;;;;2.85;2.15;;;4.80;99.90;;;;;;4919536;29;20634;-71
2023/01/31 13:37:19;;;;;;;4.80;2.30;;;4.70;99.90;;;;;;4920029;29;20198;-71
2023/01/31 13:39:50;;;;;;;4.00;2.35;;;4.60;99.90;;;;;;4920025;29;20189;-71
2023/01/31 13:42:17;;;;;;;6.13;2.58;;;4.50;99.90;;;;;;4919899;29;20249;-71
2023/01/31 13:44:47;;;;;;;2.53;2.33;;;4.50;99.90;;;;;;4919531;29;20716;-70
2023/01/31 13:47:20;;;;;;;2.55;2.17;;;4.40;99.90;;;;;;4919408;29;20668;-71
2023/01/31 13:49:50;;;;;;;3.75;2.33;;;4.30;99.90;;;;;;4919425;29;20637;-71
2023/01/31 13:52:21;;;;;;;3.40;2.55;;;4.20;99.90;;;;;;4919562;29;20268;-71
2023/01/31 13:54:51;;;;;;;5.35;2.38;;;4.10;99.90;;;;;;4919397;29;20241;-71
2023/01/31 13:57:24;;;;;;;2.35;2.22;;;4.10;99.90;;;;;;4919187;29;20609;-71
2023/01/31 13:59:54;;;;;;;3.55;2.28;;;4.00;99.90;;;;;;4919587;29;20324;-71
2023/01/31 14:02:23;;;;;;;4.32;2.47;;;3.80;99.90;;;;;;4920328;29;20221;-71
2023/01/31 14:04:50;;;;;;;3.38;2.78;;;3.80;99.90;;;;;;4919722;29;20604;-71
2023/01/31 14:07:19;;;;;;;5.15;2.20;;;3.80;99.90;;;;;;4919841;29;20216;-71
2023/01/31 14:10:31;;;;;;;3.47;2.17;;;3.80;99.90;;;;;;4919798;29;20205;-71
2023/01/31 14:13:24;;;;;;;2.55;2.28;;;3.80;99.90;;;;;;4909824;29;20205;-71
2023/01/31 14:15:52;;;;;;;3.70;2.45;;;3.80;99.90;;;;;;4919123;29;20613;-71
2023/01/31 14:18:40;;;;;;;2.60;2.38;;;3.70;99.90;;;;;;4918975;29;20205;-71
2023/01/31 14:21:53;;;;;;;4.15;2.97;;;3.70;99.90;;;;;;4918868;29;20189;-71
2023/01/31 14:24:36;;;;;;;5.20;3.75;;;3.70;99.90;;;;;;4918835;29;20281;-71
2023/01/31 14:27:11;;;;;;;4.10;3.63;;;3.80;99.90;;;;;;4918660;29;20268;-71
2023/01/31 14:29:43;;;;;;;6.68;2.90;;;3.70;99.90;;;;;;4919092;29;20252;-71
2023/01/31 14:32:15;;;;;;;8.43;3.30;;;3.70;99.90;;;;;;4919047;29;20194;-71
2023/01/31 14:34:48;;;;;;;4.22;3.78;;;3.70;99.90;;;;;;4918668;29;20229;-71
2023/01/31 14:37:28;;;;;;;11.38;3.83;;;3.60;99.90;;;;;;4918784;29;20217;-71
2023/01/31 14:40:23;;;;;;;9.00;3.78;;;3.60;99.90;;;;;;4918681;29;20196;-71
2023/01/31 14:43:16;;;;;;;5.00;2.83;;;3.60;99.90;;;;;;4918839;29;20198;-71
2023/01/31 14:45:58;;;;;;;5.15;3.22;;;3.60;99.90;;;;;;4918589;29;20232;-71
2023/01/31 14:48:45;;;;;;;3.30;2.75;;;3.60;99.90;;;;;;4918593;29;20272;-71
2023/01/31 14:51:23;;;;;;;3.42;2.25;;;3.50;99.90;;;;;;4918655;29;20189;-71
2023/01/31 14:54:06;;;;;;;5.38;2.58;;;3.50;99.90;;;;;;4918651;29;20189;-72
2023/01/31 14:56:52;;;;;;;3.75;2.28;;;3.50;99.90;;;;;;4918779;29;20236;-71
2023/01/31 14:59:31;;;;;;;5.50;2.20;;;3.40;99.90;;;;;;4918189;29;20700;-71
2023/01/31 15:02:00;;;;;;;6.32;2.10;;;3.40;99.90;;;;;;4918523;29;20534;-72
2023/01/31 15:04:28;;;;;;;2.78;1.95;;;3.30;99.90;;;;;;4918408;29;20277;-71
2023/01/31 15:06:56;;;;;;;3.05;1.80;;;3.20;99.90;;;;;;4918547;29;20201;-72
2023/01/31 15:09:36;;;;;;;2.22;1.77;;;3.10;99.90;;;;;;4922666;29;20212;-72
2023/01/31 15:14:58;;;;;;;8.05;2.47;;;3.00;99.90;;;;;;5691786;23;20578;-70
2023/01/31 15:17:29;;;;;;;4.05;2.58;;;2.90;99.90;;;;;;5001277;28;20258;-71
2023/01/31 15:20:03;;;;;;;4.40;2.00;;;2.90;99.90;;;;;;4995296;28;20242;-72
2023/01/31 15:22:32;;;;;;;4.20;2.65;;;2.90;99.90;;;;;;4995458;28;20195;-71
2023/01/31 15:25:05;;;;;;;5.30;3.15;;;2.90;99.90;;;;;;4994793;28;20226;-71
2023/01/31 15:27:39;;;;;;;7.53;3.38;;;2.80;99.90;;;;;;4998056;28;20197;-71
2023/01/31 15:30:13;;;;;;;4.53;2.58;;;2.80;99.90;;;;;;4999484;28;20187;-71
2023/01/31 15:32:48;;;;;;;6.30;2.72;;;2.80;99.90;;;;;;4998727;28;20227;-71
2023/01/31 15:35:21;;;;;;;3.17;2.53;;;2.70;99.90;;;;;;4998392;28;20222;-70
2023/01/31 15:37:56;;;;;;;5.30;3.58;;;2.70;99.90;;;;;;4998931;28;20191;-71
2023/01/31 15:40:24;;;;;;;6.55;4.20;;;2.60;99.90;;;;;;4997944;28;20190;-68
2023/01/31 15:42:51;;;;;;;2.97;2.55;;;2.70;99.90;;;;;;4994571;28;20203;-68
2023/01/31 15:45:23;;;;;;;5.85;2.90;;;2.60;99.90;;;;;;4994372;28;20226;-68
2023/01/31 15:47:59;;;;;;;7.00;3.58;;;2.60;99.90;;;;;;4994363;28;20187;-68
2023/01/31 15:50:27;;;;;;;3.58;3.00;;;2.60;99.90;;;;;;4995369;28;20234;-68
2023/01/31 15:52:55;;;;;;;5.28;2.80;;;2.50;99.90;;;;;;4994271;28;20215;-67
2023/01/31 15:55:22;;;;;;;5.90;4.28;;;2.50;99.90;;;;;;4994166;28;20705;-68
2023/01/31 15:57:54;;;;;;;7.90;4.30;;;2.40;99.90;;;;;;4994301;28;20199;-68
2023/01/31 16:00:25;;;;;;;9.38;4.78;;;2.50;99.90;;;;;;4994330;28;20187;-68
2023/01/31 16:02:59;;;;;;;6.00;3.80;;;2.40;99.90;;;;;;4994264;28;20224;-68
2023/01/31 16:05:30;;;;;;;6.78;3.55;;;2.40;99.90;;;;;;4994596;28;20218;-68
2023/01/31 16:07:57;;;;;;;5.82;3.72;;;2.40;99.90;;;;;;4994409;28;20286;-67
2023/01/31 16:10:25;;;;;;;4.72;3.00;;;2.40;99.90;;;;;;4994657;28;20209;-67
2023/01/31 16:12:53;;;;;;;3.75;3.25;;;2.40;99.90;;;;;;4994292;28;20202;-67
2023/01/31 16:15:23;;;;;;;4.05;3.25;;;2.30;99.90;;;;;;4994018;28;20254;-67
2023/01/31 16:17:50;;;;;;;6.68;3.95;;;2.20;99.90;;;;;;4994370;28;20210;-67
2023/01/31 16:20:39;;;;;;;7.97;3.80;;;2.20;99.90;;;;;;4993925;28;20210;-67
2023/01/31 16:23:06;;;;;;;6.72;4.50;;;2.10;99.90;;;;;;4994113;28;20199;-69
2023/01/31 16:25:35;;;;;;;7.57;4.65;;;2.10;99.90;;;;;;4992355;28;20234;-69
2023/01/31 16:28:04;;;;;;;8.27;4.22;;;;;;;;;;4995762;28;20210;-69
2023/01/31 16:30:33;;;;;;;5.75;4.00;;;;;;;;;;4998057;28;20207;-68
2023/01/31 16:33:00;;;;;;;6.45;4.07;;;;;;;;;;4997854;28;20653;-67
2023/01/31 16:35:28;;;;;;;6.80;4.18;;;;;;;;;;4997398;28;20656;-68
2023/01/31 16:38:02;;;;;;;4.85;4.00;;;;;;;;;;4997475;28;20689;-68
2023/01/31 16:40:30;;;;;;;3.75;3.45;;;;;;;;;;4997737;28;20191;-68
2023/01/31 16:43:09;;;;;;;6.45;3.40;;;;;;;;;;4997749;28;20214;-68
2023/01/31 16:45:36;;;;;;;6.63;4.20;;;;;;;;;;4997516;28;20281;-68
2023/01/31 16:48:10;;;;;;;10.73;4.63;;;;;;;;;;4997655;28;20199;-69
2023/01/31 16:50:37;;;;;;;9.82;4.55;;;;;;;;;;4997558;28;20199;-70
2023/01/31 16:53:15;;;;;;;7.40;4.38;;;;;;;;;;4997550;28;20206;-70
2023/01/31 16:55:42;;;;;;;8.10;4.13;;;;;;;;;;4997345;28;20225;-70
2023/01/31 16:58:10;;;;;;;4.55;3.88;;;;;;;;;;4997491;28;20214;-70
2023/01/31 17:00:37;;;;;;;6.50;3.97;;;;;;;;;;4997392;28;20203;-70
2023/01/31 17:03:12;;;;;;;7.38;4.53;;;;;;;;;;4997385;28;20202;-70
2023/01/31 17:05:41;;;;;;;4.72;3.63;;;;;;;;;;4997370;28;20233;-70
2023/01/31 17:08:14;;;;;;;5.30;3.42;;;;;;;;;;4997266;28;20203;-70
2023/01/31 17:10:41;;;;;;;3.90;3.60;;;;;;;;;;4996948;28;20593;-70
2023/01/31 17:13:14;;;;;;;4.75;3.92;;;;;;;;;;4997250;28;20199;-70
2023/01/31 17:15:42;;;;;;;6.45;3.70;;;;;;;;;;4996861;28;20231;-70
2023/01/31 17:18:10;;;;;;;9.90;4.10;;;;;;;;;;4996679;28;20214;-69
2023/01/31 17:20:37;;;;;;;7.53;5.43;;;;;;;;;;4997013;28;20209;-70
2023/01/31 17:23:05;;;;;;;5.07;4.55;;;;;;;;;;4997843;28;20550;-70
2023/01/31 17:25:35;;;;;;;6.40;4.88;;;;;;;;;;4996558;28;20702;-70
2023/01/31 17:28:02;;;;;;;11.60;6.22;;;;;;;;;;4997004;28;20290;-69
2023/01/31 17:30:30;;;;;;;13.65;5.88;;;;;;;;;;4996832;28;20203;-70
2023/01/31 17:32:57;;;;;;;7.38;5.82;;;;;;;;;;4996799;28;20549;-70
2023/01/31 17:35:26;;;;;;;7.07;6.07;;;;;;;;;;4996419;28;20710;-68
2023/01/31 17:37:53;;;;;;;8.20;5.70;;;;;;;;;;4996376;28;20207;-69
2023/01/31 17:40:20;;;;;;;9.02;5.70;;;;;;;;;;4996210;28;20210;-69
2023/01/31 17:42:48;;;;;;;7.85;6.05;;;;;;;;;;4996520;28;20206;-69
2023/01/31 17:45:17;;;;;;;6.32;5.45;;;;;;;;;;4996407;28;20226;-68
2023/01/31 17:47:44;;;;;;;5.05;4.65;;;;;;;;;;4996308;28;20230;-69
2023/01/31 17:50:15;;;;;;;6.68;4.60;;;;;;;;;;4997876;28;20213;-69
2023/01/31 17:52:42;;;;;;;4.80;4.22;;;;;;;;;;4997016;28;20187;-69
2023/01/31 17:55:09;;;;;;;5.45;4.10;;;;;;;;;;4997510;28;20227;-69
2023/01/31 17:57:37;;;;;;;4.13;3.38;;;;;;;;;;4996706;28;20214;-69
2023/01/31 18:00:06;;;;;;;4.88;3.80;;;;;;;;;;4996797;28;20202;-69
2023/01/31 18:02:34;;;;;;;21.15;8.70;;;;;;;;;;4996586;28;20229;-69
2023/01/31 18:05:01;;;;;;;20.50;8.75;;;;;;;;;;4996502;28;20222;-69
2023/01/31 18:07:28;;;;;;;13.85;6.15;;;;;;;;;;4997119;28;20209;-69
2023/01/31 18:09:55;;;;;;;21.40;10.32;;;;;;;;;;4996443;28;20203;-69
2023/01/31 18:12:22;;;;;;;16.80;8.70;;;;;;;;;;4996260;28;20202;-69
2023/01/31 18:14:49;;;;;;;13.38;6.47;;;;;;;;;;4996122;28;20219;-68
2023/01/31 18:17:19;;;;;;;13.18;7.40;;;;;;;;;;4995933;28;20234;-69
2023/01/31 18:19:46;;;;;;;12.55;7.20;;;;;;;;;;4996079;28;20261;-69
2023/01/31 18:22:13;;;;;;;4.45;3.88;;;;;;;;;;4996165;28;20209;-69
2023/01/31 18:24:40;;;;;;;7.40;3.70;;;;;;;;;;4996080;28;20226;-69
2023/01/31 18:27:07;;;;;;;3.15;2.95;;;;;;;;;;4996022;28;20233;-70
2023/01/31 18:29:34;;;;;;;5.32;4.75;;;;;;;;;;4996553;28;20203;-70
2023/01/31 18:32:04;;;;;;;5.43;4.57;;;;;;;;;;4995817;28;20211;-68
2023/01/31 18:34:33;;;;;;;4.03;3.75;;;;;;;;;;4995714;28;20226;-69
2023/01/31 18:37:00;;;;;;;3.97;3.45;;;;;;;;;;4995697;28;20227;-69
2023/01/31 18:39:27;;;;;;;8.43;4.70;;;;;;;;;;4995717;28;20264;-69
2023/01/31 18:41:55;;;;;;;7.00;4.32;;;;;;;;;;4995578;28;20206;-69
2023/01/31 18:44:22;;;;;;;5.85;3.42;;;;;;;;;;4995537;28;20226;-69
2023/01/31 18:46:49;;;;;;;5.38;3.78;;;;;;;;;;4995275;28;20206;-69
2023/01/31 18:49:17;;;;;;;3.67;3.38;;;;;;;;;;4995469;28;20225;-69
2023/01/31 18:51:46;;;;;;;3.90;3.55;;;;;;;;;;4994746;28;20228;-69
2023/01/31 18:54:13;;;;;;;6.28;4.30;;;;;;;;;;4995140;28;20213;-70
2023/01/31 18:56:40;;;;;;;6.47;5.35;;;;;;;;;;4995200;28;20222;-69
2023/01/31 18:59:07;;;;;;;3.47;3.17;;;;;;;;;;4995268;28;20206;-69
2023/01/31 19:01:34;;;;;;;3.80;3.38;;;;;;;;;;4995304;28;20202;-69
2023/01/31 19:04:01;;;;;;;3.15;2.92;;;;;;;;;;4995336;28;20214;-70
2023/01/31 19:06:30;;;;;;;3.08;2.88;;;;;;;;;;4995446;28;20206;-68
2023/01/31 19:08:59;;;;;;;3.78;3.15;;;;;;;;;;4995226;28;20285;-68
2023/01/31 19:11:27;;;;;;;6.28;3.38;;;;;;;;;;4995760;28;20661;-69
2023/01/31 19:13:54;;;;;;;4.53;3.05;;;;;;;;;;4995254;28;20230;-68
2023/01/31 19:16:22;;;;;;;3.90;3.03;;;;;;;;;;4995134;28;20315;-68
2023/01/31 19:18:49;;;;;;;3.58;3.17;;;;;;;;;;4994796;28;20589;-70
2023/01/31 19:21:17;;;;;;;3.60;2.80;;;;;;;;;;4994792;28;20207;-69
2023/01/31 19:23:44;;;;;;;5.43;2.70;;;;;;;;;;4995268;28;20566;-69
2023/01/31 19:26:13;;;;;;;4.13;2.67;;;;;;;;;;4994831;28;20230;-69
2023/01/31 19:28:41;;;;;;;4.00;3.35;;;;;;;;;;4994840;28;20195;-69
2023/01/31 19:31:09;;;;;;;3.13;2.92;;;;;;;;;;4994819;28;20203;-70
2023/01/31 19:33:36;;;;;;;4.10;3.60;;;;;;;;;;4994770;28;20213;-69
2023/01/31 19:36:08;;;;;;;5.30;3.30;;;;;;;;;;4994418;28;20222;-70
2023/01/31 19:38:35;;;;;;;4.82;3.58;;;;;;;;;;4994536;28;20211;-69
2023/01/31 19:41:07;;;;;;;4.32;3.50;;;;;;;;;;4994455;28;20207;-68
2023/01/31 19:43:35;;;;;;;15.38;7.20;;;;;;;;;;4994204;28;20210;-68
2023/01/31 19:46:02;;;;;;;14.93;8.02;;;;;;;;;;4994152;28;20717;-68
2023/01/31 19:48:29;;;;;;;6.95;4.97;;;;;;;;;;4994522;28;20199;-68
2023/01/31 19:50:56;;;;;;;6.28;4.55;;;;;;;;;;4994594;28;20211;-68
2023/01/31 19:53:23;;;;;;;5.80;4.32;;;;;;;;;;4994553;28;20213;-70
2023/01/31 19:55:50;;;;;;;5.35;4.40;;;;;;;;;;4994359;28;20229;-70
2023/01/31 19:58:18;;;;;;;5.90;5.00;;;;;;;;;;4993910;28;20702;-70
2023/01/31 20:00:47;;;;;;;4.80;3.45;;;;;;;;;;4994274;28;20662;-70
2023/01/31 20:03:14;;;;;;;4.78;3.90;;;2.00;99.90;;;;;;4994216;28;20202;-70
2023/01/31 20:05:41;;;;;;;8.18;4.65;;;;;;;;;;4994104;28;20225;-70
2023/01/31 20:08:08;;;;;;;4.82;4.43;;;;;;;;;;4994944;28;20191;-70
2023/01/31 20:10:36;;;;;;;4.78;4.25;;;;;;;;;;4994633;28;20226;-70
2023/01/31 20:13:03;;;;;;;5.78;3.67;;;;;;;;;;4994082;28;20692;-70
2023/01/31 20:15:30;;;;;;;3.55;3.25;;;;;;;;;;4994734;28;20227;-73
2023/01/31 20:17:59;;;;;;;4.80;4.07;;;;;;;;;;4994380;28;20226;-72
2023/01/31 20:20:26;;;;;;;5.65;3.65;;;;;;;;;;4994388;28;20689;-72
2023/01/31 20:22:53;;;;;;;7.65;3.80;;;;;;;;;;4995140;28;20229;-69
2023/01/31 20:25:20;;;;;;;4.50;3.53;;;;;;;;;;4995532;28;20231;-71
2023/01/31 20:27:49;;;;;;;5.05;3.85;;;;;;;;;;4995008;28;20214;-70
2023/01/31 20:30:18;;;;;;;4.47;3.75;;;;;;;;;;4995138;28;20241;-70
2023/01/31 20:32:45;;;;;;;3.25;3.05;;;;;;;;;;4998406;28;20203;-70
2023/01/31 20:35:13;;;;;;;3.67;3.33;;;;;;;;;;5001380;28;20227;-72
2023/01/31 20:37:40;;;;;;;5.65;3.10;;;;;;;;;;5001395;28;20219;-71
2023/01/31 20:40:08;;;;;;;4.00;3.50;;;;;;;;;;4996037;28;20214;-70
2023/01/31 20:42:35;;;;;;;3.47;3.17;;;;;;;;;;4998212;28;20249;-70
2023/01/31 20:45:02;;;;;;;4.50;3.90;;;;;;;;;;4997058;28;20227;-71
2023/01/31 20:47:29;;;;;;;5.95;3.67;;;;;;;;;;4994027;28;20207;-70
2023/01/31 20:49:56;;;;;;;6.60;3.75;;;;;;;;;;4993852;28;20203;-71
2023/01/31 20:52:24;;;;;;;4.00;3.60;;;;;;;;;;4993979;28;20210;-70
2023/01/31 20:54:51;;;;;;;7.07;3.58;;;;;;;;;;4993813;28;20230;-70
2023/01/31 20:57:18;;;;;;;7.13;3.85;;;;;;;;;;4993577;28;20227;-70
2023/01/31 20:59:45;;;;;;;3.55;3.20;;;;;;;;;;4993572;28;20714;-70
2023/01/31 21:02:12;;;;;;;3.83;3.53;;;;;;;;;;4993317;28;20692;-70
2023/01/31 21:04:40;;;;;;;4.40;3.53;;;;;;;;;;4993682;28;20222;-70
2023/01/31 21:07:07;;;;;;;4.13;3.72;;;;;;;;;;4994640;28;20216;-70
2023/01/31 21:09:35;;;;;;;4.75;3.47;;;;;;;;;;4993383;28;20594;-70
2023/01/31 21:12:02;;;;;;;5.03;3.67;;;;;;;;;;4993434;28;20198;-71
2023/01/31 21:14:29;;;;;;;5.47;3.33;;;;;;;;;;4996259;28;20230;-69
2023/01/31 21:16:56;;;;;;;5.53;3.42;;;;;;;;;;4996745;28;20217;-71
2023/01/31 21:19:23;;;;;;;3.70;3.40;;;;;;;;;;4996907;28;20689;-72
2023/01/31 21:21:50;;;;;;;2.95;2.75;;;;;;;;;;4996688;28;20549;-72
2023/01/31 21:24:17;;;;;;;3.47;3.05;;;;;;;;;;4996909;28;20273;-72
2023/01/31 21:26:46;;;;;;;5.35;3.20;;;;;;;;;;4996933;28;20254;-72
2023/01/31 21:29:13;;;;;;;5.47;3.85;;;;;;;;;;4996871;28;20199;-71
2023/01/31 21:31:40;;;;;;;4.50;3.38;;;;;;;;;;4996534;28;20550;-71
2023/01/31 21:34:07;;;;;;;5.30;3.85;;;;;;;;;;4996674;28;20253;-71
2023/01/31 21:36:35;;;;;;;3.40;3.20;;;;;;;;;;4996736;28;20229;-71
2023/01/31 21:39:02;;;;;;;3.63;3.35;;;;;;;;;;4996612;28;20226;-71
2023/01/31 21:44:15;;;;;;;3.10;2.90;;;;;;;;;;4996594;28;20178;-71
2023/01/31 21:46:42;;;;;;;8.55;3.13;;;;;;;;;;4996470;28;20209;-70
2023/01/31 21:49:09;;;;;;;4.22;3.10;;;;;;;;;;4996452;28;20202;-70
2023/01/31 21:51:36;;;;;;;3.67;3.05;;;;;;;;;;4996150;28;20670;-70
2023/01/31 21:54:03;;;;;;;4.97;3.33;;;;;;;;;;4996344;28;20253;-70
2023/01/31 21:56:30;;;;;;;4.28;3.88;;;;;;;;;;4996162;28;20206;-69
2023/01/31 21:58:57;;;;;;;3.83;3.55;;;;;;;;;;4996729;28;20233;-70
2023/01/31 22:01:26;;;;;;;3.97;3.58;;;;;;;;;;4996323;28;20229;-70
2023/01/31 22:03:54;;;;;;;3.80;3.50;;;;;;;;;;4996293;28;20280;-70
2023/01/31 22:06:22;;;;;;;7.65;3.83;;;;;;;;;;4995854;28;20693;-69
2023/01/31 22:08:52;;;;;;;5.57;3.65;;;;;;;;;;4996199;28;20210;-69
2023/01/31 22:11:19;;;;;;;6.28;3.78;;;;;;;;;;4996100;28;20203;-69
2023/01/31 22:13:47;;;;;;;4.85;3.63;;;;;;;;;;4996039;28;20206;-69
2023/01/31 22:16:14;;;;;;;3.50;2.97;;;;;;;;;;4995927;28;20219;-69
2023/01/31 22:18:44;;;;;;;3.90;3.60;;;;;;;;;;4995539;28;20226;-69
2023/01/31 22:21:12;;;;;;;4.70;3.40;;;;;;;;;;4995904;28;20225;-69
2023/01/31 22:23:39;;;;;;;3.90;3.58;;;;;;;;;;4996446;28;20214;-69
2023/01/31 22:26:07;;;;;;;4.07;3.47;;;;;;;;;;4994825;28;20218;-69
2023/01/31 22:28:34;;;;;;;4.82;3.85;;;;;;;;;;4995833;28;20570;-69
2023/01/31 22:31:02;;;;;;;4.07;3.67;;;;;;;;;;4995825;28;20202;-69
2023/01/31 22:33:29;;;;;;;3.50;3.28;;;;;;;;;;4995677;28;20210;-69
2023/01/31 22:35:57;;;;;;;3.50;3.20;;;;;;;;;;4995488;28;20223;-70
2023/01/31 22:38:24;;;;;;;4.72;3.38;;;;;;;;;;4995465;28;20269;-70
